Time;durP1;ratioP1;P1;durP2;ratioP2;P2;SDS_P1;SDS_P2;PMS_P1;PMS_P2;Temp;Humidity;BMP_temperature;BMP_pressure;BME280_temperature;BME280_humidity;BME280_pressure;Samples;Min_cycle;Max_cycle;Signal;HPM_P1;HPM_P2
2023/04/07 13:39:56;;;;;;;;;;;;;;;;;;5153236;27;7527;-73
2023/04/07 13:42:21;;;;;;;;;;;;;;;;;;5146714;27;8635;-73
2023/04/07 13:44:49;;;;;;;;;;;;;;;;;;5145814;27;12029;-73
2023/04/07 13:47:18;;;;;;;;;;;;;;;;;;5141986;27;8444;-73
2023/04/07 13:49:43;;;;;;;;;;;;;;;;;;5146691;27;8992;-75
2023/04/07 13:52:08;;;;;;;;;;;;;;;;;;5145869;27;9114;-75
2023/04/07 13:54:33;;;;;;;;;;;;;;;;;;5146340;27;8973;-73
2023/04/07 13:56:58;;;;;;;;;;;;;;;;;;5145989;27;9693;-74
2023/04/07 13:59:23;;;;;;;;;;;;;;;;;;5144828;27;10176;-76
2023/04/07 14:01:49;;;;;;;;;;;;;;;;;;5141950;27;9900;-74
2023/04/07 14:04:14;;;;;;;;;;;;;;;;;;5144807;27;10217;-74
2023/04/07 14:06:39;;;;;;;;;;;;;;;;;;5143935;27;8531;-76
2023/04/07 14:09:05;;;;;;;;;;;;;;;;;;5144971;27;10163;-73
2023/04/07 14:11:30;;;;;;;;;;;;;;;;;;5145903;27;9406;-74
2023/04/07 14:13:55;;;;;;;;;;;;;;;;;;5144423;27;8875;-72
2023/04/07 14:16:21;;;;;;;;;;;;;;;;;;5144632;27;9783;-72
2023/04/07 14:18:48;;;;;;;;;;;;;;;;;;5144705;27;9101;-79
2023/04/07 14:21:13;;;;;;;;;;;;;;;;;;5127573;27;11531;-74
2023/04/07 14:23:38;;;;;;;;;;;;;;;;;;5106047;27;9360;-74
2023/04/07 14:26:03;;;;;;;;;;;;;;;;;;5124245;27;9515;-73
2023/04/07 14:28:28;;;;;;;;;;;;;;;;;;5142572;27;8437;-75
2023/04/07 14:30:53;;;;;;;;;;;;;;;;;;5144805;27;8814;-76
2023/04/07 14:33:19;;;;;;;;;;;;;;;;;;5143567;27;8738;-71
2023/04/07 14:35:44;;;;;;;;;;;;;;;;;;5144353;27;9078;-72
2023/04/07 14:38:09;;;;;;;;;;;;;;;;;;5143960;27;10865;-71
2023/04/07 14:40:34;;;;;;;;;;;;;;;;;;5144178;27;10974;-71
2023/04/07 14:43:00;;;;;;;;;;;;;;;;;;5144780;27;9249;-68
2023/04/07 14:45:25;;;;;;;;;;;;;;;;;;5144317;27;10321;-70
2023/04/07 14:47:50;;;;;;;;;;;;;;;;;;5142958;27;10045;-70
2023/04/07 14:50:15;;;;;;;;;;;;;;;;;;5135675;27;9944;-75
2023/04/07 14:52:40;;;;;;;;;;;;;;;;;;5128685;27;9093;-72
2023/04/07 14:55:06;;;;;;;;;;;;;;;;;;5126317;27;9437;-83
2023/04/07 14:57:31;;;;;;;;;;;;;;;;;;5126264;27;10778;-82
2023/04/07 14:59:56;;;;;;;;;;;;;;;;;;5126128;27;11340;-80
2023/04/07 15:02:22;;;;;;;;;;;;;;;;;;5125706;27;10005;-81
2023/04/07 15:04:47;;;;;;;;;;;;;;;;;;5116260;27;10453;-82
2023/04/07 15:07:12;;;;;;;;;;;;;;;;;;5126581;27;9357;-82
2023/04/07 15:09:37;;;;;;;;;;;;;;;;;;5117272;27;9480;-82
2023/04/07 15:12:04;;;;;;;;;;;;;;;;;;5117704;27;9984;-82
2023/04/07 15:14:29;;;;;;;;;;;;;;;;;;5127483;27;11578;-74
2023/04/07 15:16:54;;;;;;;;;;;;;;;;;;5126892;27;11668;-75
2023/04/07 15:19:19;;;;;;;;;;;;;;;;;;5127280;27;11679;-76
2023/04/07 15:21:44;;;;;;;;;;;;;;;;;;5126729;27;11856;-71
2023/04/07 15:24:09;;;;;;;;;;;;;;;;;;5126716;27;13369;-71
2023/04/07 15:26:35;;;;;;;;;;;;;;;;;;5126324;27;13106;-71
2023/04/07 15:29:00;;;;;;;;;;;;;;;;;;5107992;27;13463;-70
2023/04/07 15:31:26;;;;;;;;;;;;;;;;;;5126328;27;13076;-71
2023/04/07 15:33:51;;;;;;;;;;;;;;;;;;5126560;27;13298;-71
2023/04/07 15:36:17;;;;;;;;;;;;;;;;;;5126763;27;10890;-71
2023/04/07 15:38:42;;;;;;;;;;;;;;;;;;5127446;27;10958;-70
2023/04/07 15:41:07;;;;;;;;;;;;;;;;;;5127841;27;10446;-69
2023/04/07 15:43:33;;;;;;;;;;;;;;;;;;5128356;27;10306;-68
2023/04/07 15:45:58;;;;;;;;;;;;;;;;;;5127965;27;9435;-70
2023/04/07 15:48:23;;;;;;;;;;;;;;;;;;5128745;27;8627;-68
2023/04/07 15:50:48;;;;;;;;;;;;;;;;;;5127877;27;10139;-69
2023/04/07 15:53:14;;;;;;;;;;;;;;;;;;5128556;27;10051;-71
2023/04/07 15:55:39;;;;;;;;;;;;;;;;;;5116738;27;9609;-77
2023/04/07 15:58:04;;;;;;;;;;;;;;;;;;5126646;27;10560;-77
2023/04/07 16:00:29;;;;;;;;;;;;;;;;;;5126284;27;10830;-76
2023/04/07 16:02:54;;;;;;;;;;;;;;;;;;5125314;27;9446;-76
2023/04/07 16:05:19;;;;;;;;;;;;;;;;;;5126464;27;9078;-76
2023/04/07 16:07:45;;;;;;;;;;;;;;;;;;5127988;27;8266;-78
2023/04/07 16:10:11;;;;;;;;;;;;;;;;;;5128285;27;8491;-70
2023/04/07 16:12:36;;;;;;;;;;;;;;;;;;5128017;27;8433;-72
2023/04/07 16:15:01;;;;;;;;;;;;;;;;;;5115178;27;8381;-72
